Terminal Aerodrome Forecast
Issued by NWS

Home | Current Version | Previous Version | Text Only | Print | Product List | Glossary On
Versions: 1 2 3 4 5 6 7 8 9 10 11 12 13 14 15 16 17 18
176
FTUS46 KHNX 172320
TAFVIS
TAF
KVIS 172320Z 1800/1824 VRB03KT P6SM SCT200
     FM180900 12005KT 3SM BR SCT080 BKN200
      TEMPO 1812/1815 1SM BR
     FM181500 12007KT 3SM BR BKN080
     FM182100 13009KT 6SM HZ SCT050 OVC080=

USA.gov is the U.S. government's official web portal to all federal, state and local government web resources and services.